sensor_id;sensor_type;location;lat;lon;timestamp;P1;durP1;ratioP1;P2;durP2;ratioP2
11767;SDS011;5941;57.652;12.514;2022-10-16T00:00:28;12.37;;;6.20;;
11767;SDS011;5941;57.652;12.514;2022-10-16T00:02:54;12.13;;;6.30;;
11767;SDS011;5941;57.652;12.514;2022-10-16T00:05:20;9.93;;;5.83;;
11767;SDS011;5941;57.652;12.514;2022-10-16T00:07:46;12.53;;;6.47;;
11767;SDS011;5941;57.652;12.514;2022-10-16T00:10:12;10.07;;;5.50;;
11767;SDS011;5941;57.652;12.514;2022-10-16T00:12:38;9.83;;;5.20;;
11767;SDS011;5941;57.652;12.514;2022-10-16T00:15:04;10.73;;;5.37;;
11767;SDS011;5941;57.652;12.514;2022-10-16T00:17:31;11.47;;;5.57;;
11767;SDS011;5941;57.652;12.514;2022-10-16T00:19:57;8.57;;;4.40;;
11767;SDS011;5941;57.652;12.514;2022-10-16T00:22:23;10.63;;;4.40;;
11767;SDS011;5941;57.652;12.514;2022-10-16T00:24:49;13.40;;;4.77;;
11767;SDS011;5941;57.652;12.514;2022-10-16T00:27:15;12.83;;;4.97;;
11767;SDS011;5941;57.652;12.514;2022-10-16T00:29:41;11.43;;;4.40;;
11767;SDS011;5941;57.652;12.514;2022-10-16T00:32:07;9.43;;;4.50;;
11767;SDS011;5941;57.652;12.514;2022-10-16T00:34:33;10.17;;;4.87;;
11767;SDS011;5941;57.652;12.514;2022-10-16T00:36:59;7.60;;;4.20;;
11767;SDS011;5941;57.652;12.514;2022-10-16T00:39:25;10.90;;;4.23;;
11767;SDS011;5941;57.652;12.514;2022-10-16T00:41:51;13.83;;;4.83;;
11767;SDS011;5941;57.652;12.514;2022-10-16T00:47:02;9.03;;;3.67;;
11767;SDS011;5941;57.652;12.514;2022-10-16T00:49:28;8.33;;;4.17;;
11767;SDS011;5941;57.652;12.514;2022-10-16T00:51:54;10.10;;;4.87;;
11767;SDS011;5941;57.652;12.514;2022-10-16T00:54:21;6.80;;;4.27;;
11767;SDS011;5941;57.652;12.514;2022-10-16T00:56:48;7.77;;;4.57;;
11767;SDS011;5941;57.652;12.514;2022-10-16T00:59:16;7.97;;;4.47;;
11767;SDS011;5941;57.652;12.514;2022-10-16T01:01:42;12.03;;;4.87;;
11767;SDS011;5941;57.652;12.514;2022-10-16T01:04:08;6.03;;;4.10;;
11767;SDS011;5941;57.652;12.514;2022-10-16T01:11:57;7.97;;;4.73;;
11767;SDS011;5941;57.652;12.514;2022-10-16T01:14:37;7.50;;;4.67;;
11767;SDS011;5941;57.652;12.514;2022-10-16T01:17:15;10.33;;;4.90;;
11767;SDS011;5941;57.652;12.514;2022-10-16T01:22:21;11.77;;;5.30;;
11767;SDS011;5941;57.652;12.514;2022-10-16T01:24:51;9.00;;;4.00;;
11767;SDS011;5941;57.652;12.514;2022-10-16T01:27:25;6.27;;;3.90;;
11767;SDS011;5941;57.652;12.514;2022-10-16T01:32:28;8.33;;;3.83;;
11767;SDS011;5941;57.652;12.514;2022-10-16T01:37:25;6.87;;;3.90;;
11767;SDS011;5941;57.652;12.514;2022-10-16T01:39:53;11.17;;;3.60;;
11767;SDS011;5941;57.652;12.514;2022-10-16T01:42:22;7.33;;;3.40;;
11767;SDS011;5941;57.652;12.514;2022-10-16T01:44:49;7.40;;;3.97;;
11767;SDS011;5941;57.652;12.514;2022-10-16T01:47:16;11.27;;;4.20;;
11767;SDS011;5941;57.652;12.514;2022-10-16T01:49:44;11.13;;;3.70;;
11767;SDS011;5941;57.652;12.514;2022-10-16T01:52:12;10.57;;;4.07;;
11767;SDS011;5941;57.652;12.514;2022-10-16T01:54:40;10.97;;;3.73;;
11767;SDS011;5941;57.652;12.514;2022-10-16T01:57:07;6.57;;;3.63;;
11767;SDS011;5941;57.652;12.514;2022-10-16T01:59:35;7.53;;;4.00;;
11767;SDS011;5941;57.652;12.514;2022-10-16T02:02:04;9.20;;;4.50;;
11767;SDS011;5941;57.652;12.514;2022-10-16T02:06:57;11.80;;;4.03;;
11767;SDS011;5941;57.652;12.514;2022-10-16T02:09:23;11.73;;;4.57;;
11767;SDS011;5941;57.652;12.514;2022-10-16T02:11:49;10.60;;;4.20;;
11767;SDS011;5941;57.652;12.514;2022-10-16T02:14:16;8.93;;;3.80;;
11767;SDS011;5941;57.652;12.514;2022-10-16T02:16:44;11.83;;;4.13;;
11767;SDS011;5941;57.652;12.514;2022-10-16T02:19:11;9.43;;;3.80;;
11767;SDS011;5941;57.652;12.514;2022-10-16T02:21:46;9.20;;;3.73;;
11767;SDS011;5941;57.652;12.514;2022-10-16T02:24:18;8.97;;;3.60;;
11767;SDS011;5941;57.652;12.514;2022-10-16T02:26:52;9.23;;;4.03;;
11767;SDS011;5941;57.652;12.514;2022-10-16T02:29:20;6.20;;;3.20;;
11767;SDS011;5941;57.652;12.514;2022-10-16T02:31:49;7.60;;;3.73;;
11767;SDS011;5941;57.652;12.514;2022-10-16T02:34:16;9.73;;;3.23;;
11767;SDS011;5941;57.652;12.514;2022-10-16T02:36:43;14.30;;;3.50;;
11767;SDS011;5941;57.652;12.514;2022-10-16T02:39:10;7.57;;;3.60;;
11767;SDS011;5941;57.652;12.514;2022-10-16T02:41:36;8.40;;;3.27;;
11767;SDS011;5941;57.652;12.514;2022-10-16T02:44:02;8.00;;;3.93;;
11767;SDS011;5941;57.652;12.514;2022-10-16T02:46:28;7.33;;;3.20;;
11767;SDS011;5941;57.652;12.514;2022-10-16T02:48:54;6.77;;;3.23;;
11767;SDS011;5941;57.652;12.514;2022-10-16T02:51:20;6.10;;;2.90;;
11767;SDS011;5941;57.652;12.514;2022-10-16T02:53:46;7.40;;;3.17;;
11767;SDS011;5941;57.652;12.514;2022-10-16T02:56:12;5.63;;;3.00;;
11767;SDS011;5941;57.652;12.514;2022-10-16T02:58:38;5.90;;;3.07;;
11767;SDS011;5941;57.652;12.514;2022-10-16T03:01:04;6.57;;;3.20;;
11767;SDS011;5941;57.652;12.514;2022-10-16T03:03:30;7.50;;;2.87;;
11767;SDS011;5941;57.652;12.514;2022-10-16T03:05:56;7.80;;;3.30;;
11767;SDS011;5941;57.652;12.514;2022-10-16T03:08:22;7.83;;;3.03;;
11767;SDS011;5941;57.652;12.514;2022-10-16T03:10:50;5.20;;;2.67;;
11767;SDS011;5941;57.652;12.514;2022-10-16T03:13:16;10.90;;;2.77;;
11767;SDS011;5941;57.652;12.514;2022-10-16T03:15:45;6.97;;;2.67;;
11767;SDS011;5941;57.652;12.514;2022-10-16T03:18:11;5.30;;;2.60;;
11767;SDS011;5941;57.652;12.514;2022-10-16T03:20:37;5.53;;;2.43;;
11767;SDS011;5941;57.652;12.514;2022-10-16T03:23:03;4.80;;;2.40;;
11767;SDS011;5941;57.652;12.514;2022-10-16T03:25:29;4.27;;;2.50;;
11767;SDS011;5941;57.652;12.514;2022-10-16T03:27:55;4.43;;;2.67;;
11767;SDS011;5941;57.652;12.514;2022-10-16T03:30:21;4.47;;;2.27;;
11767;SDS011;5941;57.652;12.514;2022-10-16T03:32:47;5.20;;;2.60;;
11767;SDS011;5941;57.652;12.514;2022-10-16T03:35:13;4.83;;;2.47;;
11767;SDS011;5941;57.652;12.514;2022-10-16T03:37:39;5.93;;;2.60;;
11767;SDS011;5941;57.652;12.514;2022-10-16T03:40:05;3.13;;;2.30;;
11767;SDS011;5941;57.652;12.514;2022-10-16T03:42:31;6.07;;;2.77;;
11767;SDS011;5941;57.652;12.514;2022-10-16T03:44:57;6.57;;;3.23;;
11767;SDS011;5941;57.652;12.514;2022-10-16T03:47:23;9.60;;;2.33;;
11767;SDS011;5941;57.652;12.514;2022-10-16T03:49:49;10.17;;;2.10;;
11767;SDS011;5941;57.652;12.514;2022-10-16T03:52:15;8.40;;;2.20;;
11767;SDS011;5941;57.652;12.514;2022-10-16T03:54:41;5.83;;;2.40;;
11767;SDS011;5941;57.652;12.514;2022-10-16T03:57:07;7.47;;;2.67;;
11767;SDS011;5941;57.652;12.514;2022-10-16T03:59:33;9.17;;;2.53;;
11767;SDS011;5941;57.652;12.514;2022-10-16T04:01:59;6.80;;;2.30;;
11767;SDS011;5941;57.652;12.514;2022-10-16T04:04:25;6.60;;;2.37;;
11767;SDS011;5941;57.652;12.514;2022-10-16T04:06:51;7.97;;;2.40;;
11767;SDS011;5941;57.652;12.514;2022-10-16T04:09:17;9.47;;;2.63;;
11767;SDS011;5941;57.652;12.514;2022-10-16T04:11:43;4.50;;;2.13;;
11767;SDS011;5941;57.652;12.514;2022-10-16T04:14:09;6.03;;;2.03;;
11767;SDS011;5941;57.652;12.514;2022-10-16T04:16:35;11.37;;;3.20;;
11767;SDS011;5941;57.652;12.514;2022-10-16T04:19:01;9.00;;;2.50;;
11767;SDS011;5941;57.652;12.514;2022-10-16T04:21:27;9.73;;;2.87;;
11767;SDS011;5941;57.652;12.514;2022-10-16T04:23:53;5.63;;;2.60;;
11767;SDS011;5941;57.652;12.514;2022-10-16T04:26:19;7.00;;;2.70;;
11767;SDS011;5941;57.652;12.514;2022-10-16T04:28:45;5.90;;;2.53;;
11767;SDS011;5941;57.652;12.514;2022-10-16T04:31:11;5.13;;;2.30;;
11767;SDS011;5941;57.652;12.514;2022-10-16T04:33:37;6.53;;;2.57;;
11767;SDS011;5941;57.652;12.514;2022-10-16T04:36:03;6.97;;;2.80;;
11767;SDS011;5941;57.652;12.514;2022-10-16T04:38:29;5.87;;;2.80;;
11767;SDS011;5941;57.652;12.514;2022-10-16T04:40:55;8.47;;;2.80;;
11767;SDS011;5941;57.652;12.514;2022-10-16T04:43:21;7.73;;;3.07;;
11767;SDS011;5941;57.652;12.514;2022-10-16T04:45:47;7.50;;;2.70;;
11767;SDS011;5941;57.652;12.514;2022-10-16T04:48:15;9.47;;;3.40;;
11767;SDS011;5941;57.652;12.514;2022-10-16T04:50:41;5.73;;;3.00;;
11767;SDS011;5941;57.652;12.514;2022-10-16T04:53:07;9.33;;;3.50;;
11767;SDS011;5941;57.652;12.514;2022-10-16T04:55:33;13.27;;;3.53;;
11767;SDS011;5941;57.652;12.514;2022-10-16T04:57:59;8.97;;;3.37;;
11767;SDS011;5941;57.652;12.514;2022-10-16T05:00:25;9.60;;;3.30;;
11767;SDS011;5941;57.652;12.514;2022-10-16T05:02:51;9.27;;;3.50;;
11767;SDS011;5941;57.652;12.514;2022-10-16T05:05:17;11.00;;;3.67;;
11767;SDS011;5941;57.652;12.514;2022-10-16T05:07:46;6.40;;;3.33;;
11767;SDS011;5941;57.652;12.514;2022-10-16T05:10:13;10.20;;;3.30;;
11767;SDS011;5941;57.652;12.514;2022-10-16T05:12:39;9.53;;;3.50;;
11767;SDS011;5941;57.652;12.514;2022-10-16T05:15:05;8.33;;;3.23;;
11767;SDS011;5941;57.652;12.514;2022-10-16T05:17:31;8.40;;;3.23;;
11767;SDS011;5941;57.652;12.514;2022-10-16T05:19:57;6.63;;;3.50;;
11767;SDS011;5941;57.652;12.514;2022-10-16T05:22:23;5.67;;;3.23;;
11767;SDS011;5941;57.652;12.514;2022-10-16T05:24:49;7.00;;;2.87;;
11767;SDS011;5941;57.652;12.514;2022-10-16T05:27:15;7.73;;;3.60;;
11767;SDS011;5941;57.652;12.514;2022-10-16T05:29:47;8.17;;;3.37;;
11767;SDS011;5941;57.652;12.514;2022-10-16T05:32:13;7.77;;;3.83;;
11767;SDS011;5941;57.652;12.514;2022-10-16T05:34:39;10.20;;;3.50;;
11767;SDS011;5941;57.652;12.514;2022-10-16T05:37:05;7.83;;;3.80;;
11767;SDS011;5941;57.652;12.514;2022-10-16T05:39:31;9.87;;;3.87;;
11767;SDS011;5941;57.652;12.514;2022-10-16T05:41:57;8.73;;;3.70;;
11767;SDS011;5941;57.652;12.514;2022-10-16T05:44:23;10.43;;;3.70;;
11767;SDS011;5941;57.652;12.514;2022-10-16T05:46:49;9.47;;;3.90;;
11767;SDS011;5941;57.652;12.514;2022-10-16T05:49:15;8.27;;;4.10;;
11767;SDS011;5941;57.652;12.514;2022-10-16T05:51:41;11.90;;;4.77;;
11767;SDS011;5941;57.652;12.514;2022-10-16T05:54:08;10.00;;;4.10;;
11767;SDS011;5941;57.652;12.514;2022-10-16T05:56:34;7.40;;;3.77;;
11767;SDS011;5941;57.652;12.514;2022-10-16T05:59:00;7.53;;;3.40;;
11767;SDS011;5941;57.652;12.514;2022-10-16T06:01:26;5.03;;;3.23;;
11767;SDS011;5941;57.652;12.514;2022-10-16T06:03:52;9.83;;;4.00;;
11767;SDS011;5941;57.652;12.514;2022-10-16T06:06:21;8.80;;;3.70;;
11767;SDS011;5941;57.652;12.514;2022-10-16T06:08:49;9.10;;;4.27;;
11767;SDS011;5941;57.652;12.514;2022-10-16T06:11:25;6.13;;;3.67;;
11767;SDS011;5941;57.652;12.514;2022-10-16T06:13:52;7.77;;;3.83;;
11767;SDS011;5941;57.652;12.514;2022-10-16T06:16:18;6.20;;;3.30;;
11767;SDS011;5941;57.652;12.514;2022-10-16T06:18:44;8.30;;;4.03;;
11767;SDS011;5941;57.652;12.514;2022-10-16T06:21:16;9.07;;;4.33;;
11767;SDS011;5941;57.652;12.514;2022-10-16T06:23:42;9.60;;;4.33;;
11767;SDS011;5941;57.652;12.514;2022-10-16T06:26:09;13.83;;;4.43;;
11767;SDS011;5941;57.652;12.514;2022-10-16T06:28:35;9.33;;;4.43;;
11767;SDS011;5941;57.652;12.514;2022-10-16T06:31:02;8.23;;;3.93;;
11767;SDS011;5941;57.652;12.514;2022-10-16T06:33:28;8.90;;;3.90;;
11767;SDS011;5941;57.652;12.514;2022-10-16T06:35:59;6.90;;;3.60;;
11767;SDS011;5941;57.652;12.514;2022-10-16T06:38:25;6.93;;;3.70;;
11767;SDS011;5941;57.652;12.514;2022-10-16T06:40:53;9.20;;;3.50;;
11767;SDS011;5941;57.652;12.514;2022-10-16T06:43:18;9.10;;;3.30;;
11767;SDS011;5941;57.652;12.514;2022-10-16T06:45:50;7.20;;;3.37;;
11767;SDS011;5941;57.652;12.514;2022-10-16T06:48:16;6.13;;;3.20;;
11767;SDS011;5941;57.652;12.514;2022-10-16T06:50:42;7.53;;;3.10;;
11767;SDS011;5941;57.652;12.514;2022-10-16T06:53:08;8.03;;;3.40;;
11767;SDS011;5941;57.652;12.514;2022-10-16T06:55:34;7.47;;;3.07;;
11767;SDS011;5941;57.652;12.514;2022-10-16T06:58:00;6.10;;;3.07;;
11767;SDS011;5941;57.652;12.514;2022-10-16T07:00:26;6.40;;;3.03;;
11767;SDS011;5941;57.652;12.514;2022-10-16T07:02:52;6.60;;;2.93;;
11767;SDS011;5941;57.652;12.514;2022-10-16T07:05:18;9.53;;;3.03;;
11767;SDS011;5941;57.652;12.514;2022-10-16T07:07:43;8.27;;;2.60;;
11767;SDS011;5941;57.652;12.514;2022-10-16T07:10:09;6.27;;;2.57;;
11767;SDS011;5941;57.652;12.514;2022-10-16T07:12:35;4.83;;;2.30;;
11767;SDS011;5941;57.652;12.514;2022-10-16T07:15:01;7.53;;;2.20;;
11767;SDS011;5941;57.652;12.514;2022-10-16T07:17:27;6.17;;;2.67;;
11767;SDS011;5941;57.652;12.514;2022-10-16T07:19:53;5.50;;;2.43;;
11767;SDS011;5941;57.652;12.514;2022-10-16T07:22:20;9.67;;;2.40;;
11767;SDS011;5941;57.652;12.514;2022-10-16T07:24:46;4.80;;;2.20;;
11767;SDS011;5941;57.652;12.514;2022-10-16T07:27:12;3.87;;;2.20;;
11767;SDS011;5941;57.652;12.514;2022-10-16T07:29:38;6.80;;;2.47;;
11767;SDS011;5941;57.652;12.514;2022-10-16T07:32:04;6.77;;;2.13;;
11767;SDS011;5941;57.652;12.514;2022-10-16T07:34:30;8.00;;;2.63;;
11767;SDS011;5941;57.652;12.514;2022-10-16T07:36:56;5.50;;;2.03;;
11767;SDS011;5941;57.652;12.514;2022-10-16T07:39:22;6.53;;;2.40;;
11767;SDS011;5941;57.652;12.514;2022-10-16T07:41:48;6.00;;;1.87;;
11767;SDS011;5941;57.652;12.514;2022-10-16T07:44:15;6.60;;;2.10;;
11767;SDS011;5941;57.652;12.514;2022-10-16T07:46:41;5.43;;;1.90;;
11767;SDS011;5941;57.652;12.514;2022-10-16T07:49:08;7.93;;;2.07;;
11767;SDS011;5941;57.652;12.514;2022-10-16T07:51:34;7.93;;;2.10;;
11767;SDS011;5941;57.652;12.514;2022-10-16T07:54:00;6.07;;;1.80;;
11767;SDS011;5941;57.652;12.514;2022-10-16T07:56:26;5.93;;;1.80;;
11767;SDS011;5941;57.652;12.514;2022-10-16T07:58:52;6.23;;;2.30;;
11767;SDS011;5941;57.652;12.514;2022-10-16T08:01:18;6.70;;;2.10;;
11767;SDS011;5941;57.652;12.514;2022-10-16T08:03:46;7.50;;;2.10;;
11767;SDS011;5941;57.652;12.514;2022-10-16T08:06:12;9.53;;;2.10;;
11767;SDS011;5941;57.652;12.514;2022-10-16T08:08:38;8.13;;;2.13;;
11767;SDS011;5941;57.652;12.514;2022-10-16T08:11:04;7.50;;;2.00;;
11767;SDS011;5941;57.652;12.514;2022-10-16T08:13:31;7.40;;;1.80;;
11767;SDS011;5941;57.652;12.514;2022-10-16T08:15:57;9.27;;;2.30;;
11767;SDS011;5941;57.652;12.514;2022-10-16T08:18:23;7.93;;;2.53;;
11767;SDS011;5941;57.652;12.514;2022-10-16T08:20:54;8.10;;;2.23;;
11767;SDS011;5941;57.652;12.514;2022-10-16T08:23:21;6.53;;;2.13;;
11767;SDS011;5941;57.652;12.514;2022-10-16T08:25:47;7.07;;;2.20;;
11767;SDS011;5941;57.652;12.514;2022-10-16T08:28:13;8.60;;;2.20;;
11767;SDS011;5941;57.652;12.514;2022-10-16T08:30:40;9.50;;;2.33;;
11767;SDS011;5941;57.652;12.514;2022-10-16T08:33:06;7.07;;;1.97;;
11767;SDS011;5941;57.652;12.514;2022-10-16T08:35:32;8.60;;;2.00;;
11767;SDS011;5941;57.652;12.514;2022-10-16T08:37:58;8.07;;;2.33;;
11767;SDS011;5941;57.652;12.514;2022-10-16T08:40:28;6.50;;;1.77;;
11767;SDS011;5941;57.652;12.514;2022-10-16T08:45:49;7.13;;;2.70;;
11767;SDS011;5941;57.652;12.514;2022-10-16T08:48:33;8.33;;;2.10;;
11767;SDS011;5941;57.652;12.514;2022-10-16T08:51:02;8.67;;;2.20;;
11767;SDS011;5941;57.652;12.514;2022-10-16T08:53:46;11.13;;;2.30;;
11767;SDS011;5941;57.652;12.514;2022-10-16T08:56:14;5.70;;;1.70;;
11767;SDS011;5941;57.652;12.514;2022-10-16T08:58:41;10.53;;;2.00;;
11767;SDS011;5941;57.652;12.514;2022-10-16T09:01:14;9.43;;;1.97;;
11767;SDS011;5941;57.652;12.514;2022-10-16T09:08:58;10.63;;;2.57;;
11767;SDS011;5941;57.652;12.514;2022-10-16T09:13:58;10.83;;;2.30;;
11767;SDS011;5941;57.652;12.514;2022-10-16T09:16:31;6.10;;;2.33;;
11767;SDS011;5941;57.652;12.514;2022-10-16T09:21:28;11.23;;;2.40;;
11767;SDS011;5941;57.652;12.514;2022-10-16T09:24:37;12.83;;;2.60;;
11767;SDS011;5941;57.652;12.514;2022-10-16T09:26:45;10.67;;;2.27;;
11767;SDS011;5941;57.652;12.514;2022-10-16T09:29:12;9.73;;;2.43;;
11767;SDS011;5941;57.652;12.514;2022-10-16T09:31:38;8.67;;;2.70;;
11767;SDS011;5941;57.652;12.514;2022-10-16T09:34:04;11.10;;;2.43;;
11767;SDS011;5941;57.652;12.514;2022-10-16T09:36:34;11.30;;;2.30;;
11767;SDS011;5941;57.652;12.514;2022-10-16T09:39:01;6.90;;;2.30;;
11767;SDS011;5941;57.652;12.514;2022-10-16T09:41:27;6.87;;;2.40;;
11767;SDS011;5941;57.652;12.514;2022-10-16T09:43:57;11.60;;;2.30;;
11767;SDS011;5941;57.652;12.514;2022-10-16T09:46:31;11.40;;;2.40;;
11767;SDS011;5941;57.652;12.514;2022-10-16T09:48:59;14.20;;;2.37;;
11767;SDS011;5941;57.652;12.514;2022-10-16T09:51:32;11.70;;;2.50;;
11767;SDS011;5941;57.652;12.514;2022-10-16T09:54:00;12.77;;;2.87;;
11767;SDS011;5941;57.652;12.514;2022-10-16T09:56:27;11.67;;;2.63;;
11767;SDS011;5941;57.652;12.514;2022-10-16T09:58:55;8.20;;;2.33;;
11767;SDS011;5941;57.652;12.514;2022-10-16T10:01:22;13.33;;;2.60;;
11767;SDS011;5941;57.652;12.514;2022-10-16T10:03:49;12.30;;;2.93;;
11767;SDS011;5941;57.652;12.514;2022-10-16T10:06:25;6.43;;;2.20;;
11767;SDS011;5941;57.652;12.514;2022-10-16T10:12:03;9.13;;;2.30;;
11767;SDS011;5941;57.652;12.514;2022-10-16T10:16:38;11.97;;;2.27;;
11767;SDS011;5941;57.652;12.514;2022-10-16T10:19:04;11.00;;;2.57;;
11767;SDS011;5941;57.652;12.514;2022-10-16T10:21:32;11.47;;;3.07;;
11767;SDS011;5941;57.652;12.514;2022-10-16T10:23:59;12.83;;;2.57;;
11767;SDS011;5941;57.652;12.514;2022-10-16T10:26:26;9.57;;;2.43;;
11767;SDS011;5941;57.652;12.514;2022-10-16T10:36:37;10.40;;;2.50;;
11767;SDS011;5941;57.652;12.514;2022-10-16T10:39:17;9.97;;;2.10;;
11767;SDS011;5941;57.652;12.514;2022-10-16T10:47:15;10.73;;;2.37;;
11767;SDS011;5941;57.652;12.514;2022-10-16T10:58:04;7.87;;;1.93;;
11767;SDS011;5941;57.652;12.514;2022-10-16T11:00:47;10.63;;;2.40;;
11767;SDS011;5941;57.652;12.514;2022-10-16T11:03:31;9.53;;;2.00;;
11767;SDS011;5941;57.652;12.514;2022-10-16T11:08:37;9.37;;;1.97;;
11767;SDS011;5941;57.652;12.514;2022-10-16T11:11:08;12.77;;;2.37;;
11767;SDS011;5941;57.652;12.514;2022-10-16T11:13:38;9.20;;;2.70;;
11767;SDS011;5941;57.652;12.514;2022-10-16T11:16:16;9.13;;;2.33;;
11767;SDS011;5941;57.652;12.514;2022-10-16T11:18:45;13.10;;;2.50;;
11767;SDS011;5941;57.652;12.514;2022-10-16T11:21:12;8.73;;;2.50;;
11767;SDS011;5941;57.652;12.514;2022-10-16T11:23:45;11.27;;;2.80;;
11767;SDS011;5941;57.652;12.514;2022-10-16T11:26:19;12.73;;;2.70;;
11767;SDS011;5941;57.652;12.514;2022-10-16T11:28:49;10.77;;;2.60;;
11767;SDS011;5941;57.652;12.514;2022-10-16T11:31:22;8.30;;;2.33;;
11767;SDS011;5941;57.652;12.514;2022-10-16T11:34:01;9.57;;;2.77;;
11767;SDS011;5941;57.652;12.514;2022-10-16T11:41:32;10.70;;;2.13;;
11767;SDS011;5941;57.652;12.514;2022-10-16T11:46:32;8.33;;;2.10;;
11767;SDS011;5941;57.652;12.514;2022-10-16T11:54:34;8.93;;;2.57;;
11767;SDS011;5941;57.652;12.514;2022-10-16T11:57:02;6.87;;;2.30;;
11767;SDS011;5941;57.652;12.514;2022-10-16T11:59:45;7.40;;;2.20;;
11767;SDS011;5941;57.652;12.514;2022-10-16T12:02:26;9.90;;;2.27;;
11767;SDS011;5941;57.652;12.514;2022-10-16T12:07:33;8.77;;;1.83;;
11767;SDS011;5941;57.652;12.514;2022-10-16T12:12:57;11.83;;;2.50;;
11767;SDS011;5941;57.652;12.514;2022-10-16T12:15:24;9.57;;;2.03;;
11767;SDS011;5941;57.652;12.514;2022-10-16T12:17:51;9.17;;;2.03;;
11767;SDS011;5941;57.652;12.514;2022-10-16T12:30:41;7.23;;;1.70;;
11767;SDS011;5941;57.652;12.514;2022-10-16T12:35:46;3.80;;;1.03;;
11767;SDS011;5941;57.652;12.514;2022-10-16T12:40:42;2.50;;;0.87;;
11767;SDS011;5941;57.652;12.514;2022-10-16T12:43:51;3.53;;;1.10;;
11767;SDS011;5941;57.652;12.514;2022-10-16T12:46:01;3.77;;;0.90;;
11767;SDS011;5941;57.652;12.514;2022-10-16T12:48:28;2.80;;;0.70;;
11767;SDS011;5941;57.652;12.514;2022-10-16T12:50:55;3.03;;;0.90;;
11767;SDS011;5941;57.652;12.514;2022-10-16T12:53:23;2.73;;;0.80;;
11767;SDS011;5941;57.652;12.514;2022-10-16T12:58:24;3.47;;;0.90;;
11767;SDS011;5941;57.652;12.514;2022-10-16T13:11:55;2.27;;;0.90;;
11767;SDS011;5941;57.652;12.514;2022-10-16T13:14:02;7.17;;;0.97;;
11767;SDS011;5941;57.652;12.514;2022-10-16T13:21:38;4.37;;;1.37;;
11767;SDS011;5941;57.652;12.514;2022-10-16T13:26:42;5.77;;;0.80;;
11767;SDS011;5941;57.652;12.514;2022-10-16T13:29:10;2.97;;;0.87;;
11767;SDS011;5941;57.652;12.514;2022-10-16T13:31:37;4.07;;;0.93;;
11767;SDS011;5941;57.652;12.514;2022-10-16T13:34:03;5.43;;;1.07;;
11767;SDS011;5941;57.652;12.514;2022-10-16T13:36:35;7.97;;;1.03;;
11767;SDS011;5941;57.652;12.514;2022-10-16T13:39:12;7.93;;;1.07;;
11767;SDS011;5941;57.652;12.514;2022-10-16T13:41:39;6.57;;;1.57;;
11767;SDS011;5941;57.652;12.514;2022-10-16T13:44:05;6.53;;;1.20;;
11767;SDS011;5941;57.652;12.514;2022-10-16T13:46:34;6.80;;;1.13;;
11767;SDS011;5941;57.652;12.514;2022-10-16T13:49:02;7.43;;;1.70;;
11767;SDS011;5941;57.652;12.514;2022-10-16T13:51:29;5.13;;;1.00;;
11767;SDS011;5941;57.652;12.514;2022-10-16T13:53:55;3.77;;;1.10;;
11767;SDS011;5941;57.652;12.514;2022-10-16T13:56:22;4.57;;;1.10;;
11767;SDS011;5941;57.652;12.514;2022-10-16T13:58:59;6.87;;;1.40;;
11767;SDS011;5941;57.652;12.514;2022-10-16T14:01:30;4.87;;;1.30;;
11767;SDS011;5941;57.652;12.514;2022-10-16T14:04:10;5.43;;;1.30;;
11767;SDS011;5941;57.652;12.514;2022-10-16T14:06:40;6.70;;;1.60;;
11767;SDS011;5941;57.652;12.514;2022-10-16T14:09:07;6.43;;;1.80;;
11767;SDS011;5941;57.652;12.514;2022-10-16T14:11:36;5.57;;;1.50;;
11767;SDS011;5941;57.652;12.514;2022-10-16T14:14:04;6.40;;;1.60;;
11767;SDS011;5941;57.652;12.514;2022-10-16T14:16:30;5.03;;;1.30;;
11767;SDS011;5941;57.652;12.514;2022-10-16T14:18:58;4.07;;;1.27;;
11767;SDS011;5941;57.652;12.514;2022-10-16T14:21:25;9.17;;;1.63;;
11767;SDS011;5941;57.652;12.514;2022-10-16T14:23:51;3.73;;;1.30;;
11767;SDS011;5941;57.652;12.514;2022-10-16T14:26:20;11.67;;;1.93;;
11767;SDS011;5941;57.652;12.514;2022-10-16T14:28:48;9.63;;;1.70;;
11767;SDS011;5941;57.652;12.514;2022-10-16T14:31:24;6.90;;;2.27;;
11767;SDS011;5941;57.652;12.514;2022-10-16T14:33:51;7.03;;;2.10;;
11767;SDS011;5941;57.652;12.514;2022-10-16T14:36:17;8.93;;;1.70;;
11767;SDS011;5941;57.652;12.514;2022-10-16T14:38:57;10.60;;;1.83;;
11767;SDS011;5941;57.652;12.514;2022-10-16T14:41:25;6.03;;;1.60;;
11767;SDS011;5941;57.652;12.514;2022-10-16T14:43:55;9.77;;;1.83;;
11767;SDS011;5941;57.652;12.514;2022-10-16T14:46:22;10.40;;;2.00;;
11767;SDS011;5941;57.652;12.514;2022-10-16T14:48:57;8.37;;;1.80;;
11767;SDS011;5941;57.652;12.514;2022-10-16T14:51:24;7.67;;;1.70;;
11767;SDS011;5941;57.652;12.514;2022-10-16T14:53:50;7.27;;;1.60;;
11767;SDS011;5941;57.652;12.514;2022-10-16T14:56:18;10.03;;;2.07;;
11767;SDS011;5941;57.652;12.514;2022-10-16T14:58:44;8.57;;;2.03;;
11767;SDS011;5941;57.652;12.514;2022-10-16T15:01:10;8.73;;;2.20;;
11767;SDS011;5941;57.652;12.514;2022-10-16T15:03:37;10.17;;;2.23;;
11767;SDS011;5941;57.652;12.514;2022-10-16T15:06:03;7.60;;;1.63;;
11767;SDS011;5941;57.652;12.514;2022-10-16T15:08:29;6.47;;;1.70;;
11767;SDS011;5941;57.652;12.514;2022-10-16T15:10:55;10.37;;;1.60;;
11767;SDS011;5941;57.652;12.514;2022-10-16T15:13:21;5.63;;;1.90;;
11767;SDS011;5941;57.652;12.514;2022-10-16T15:15:47;9.77;;;1.80;;
11767;SDS011;5941;57.652;12.514;2022-10-16T15:18:16;8.07;;;1.90;;
11767;SDS011;5941;57.652;12.514;2022-10-16T15:20:45;14.10;;;2.40;;
11767;SDS011;5941;57.652;12.514;2022-10-16T15:23:16;6.30;;;1.60;;
11767;SDS011;5941;57.652;12.514;2022-10-16T15:25:44;6.00;;;1.70;;
11767;SDS011;5941;57.652;12.514;2022-10-16T15:28:10;11.70;;;1.70;;
11767;SDS011;5941;57.652;12.514;2022-10-16T15:30:37;5.60;;;1.87;;
11767;SDS011;5941;57.652;12.514;2022-10-16T15:33:04;10.93;;;2.00;;
11767;SDS011;5941;57.652;12.514;2022-10-16T15:35:30;11.27;;;2.03;;
11767;SDS011;5941;57.652;12.514;2022-10-16T15:37:56;8.23;;;1.90;;
11767;SDS011;5941;57.652;12.514;2022-10-16T15:40:22;10.50;;;1.77;;
11767;SDS011;5941;57.652;12.514;2022-10-16T15:42:49;8.23;;;2.17;;
11767;SDS011;5941;57.652;12.514;2022-10-16T15:45:17;10.20;;;1.93;;
11767;SDS011;5941;57.652;12.514;2022-10-16T15:47:44;11.03;;;2.10;;
11767;SDS011;5941;57.652;12.514;2022-10-16T15:50:11;9.60;;;1.97;;
11767;SDS011;5941;57.652;12.514;2022-10-16T15:52:37;10.03;;;2.10;;
11767;SDS011;5941;57.652;12.514;2022-10-16T15:55:04;11.80;;;2.53;;
11767;SDS011;5941;57.652;12.514;2022-10-16T15:57:30;13.17;;;1.80;;
11767;SDS011;5941;57.652;12.514;2022-10-16T15:59:56;9.20;;;2.13;;
11767;SDS011;5941;57.652;12.514;2022-10-16T16:02:22;9.83;;;2.40;;
11767;SDS011;5941;57.652;12.514;2022-10-16T16:04:48;13.83;;;2.00;;
11767;SDS011;5941;57.652;12.514;2022-10-16T16:07:14;13.40;;;2.20;;
11767;SDS011;5941;57.652;12.514;2022-10-16T16:09:40;11.20;;;2.27;;
11767;SDS011;5941;57.652;12.514;2022-10-16T16:12:06;11.47;;;2.60;;
11767;SDS011;5941;57.652;12.514;2022-10-16T16:14:32;15.83;;;2.47;;
11767;SDS011;5941;57.652;12.514;2022-10-16T16:16:58;12.20;;;2.47;;
11767;SDS011;5941;57.652;12.514;2022-10-16T16:19:24;7.87;;;1.90;;
11767;SDS011;5941;57.652;12.514;2022-10-16T16:21:50;9.30;;;2.00;;
11767;SDS011;5941;57.652;12.514;2022-10-16T16:24:16;11.87;;;2.40;;
11767;SDS011;5941;57.652;12.514;2022-10-16T16:26:42;10.20;;;2.07;;
11767;SDS011;5941;57.652;12.514;2022-10-16T16:29:12;11.67;;;2.20;;
11767;SDS011;5941;57.652;12.514;2022-10-16T16:31:38;9.80;;;2.03;;
11767;SDS011;5941;57.652;12.514;2022-10-16T16:34:04;10.07;;;1.87;;
11767;SDS011;5941;57.652;12.514;2022-10-16T16:36:30;13.20;;;2.20;;
11767;SDS011;5941;57.652;12.514;2022-10-16T16:38:56;11.67;;;2.20;;
11767;SDS011;5941;57.652;12.514;2022-10-16T16:41:23;11.30;;;2.60;;